OMAD

Details ICAO OMAD (AZI)
Name BATEEN
Region United Arab Emirates
Timezone Asia/Dubai (UTC+4.0)
Plans Departing 33
Arriving 37
Stats Elevation 16 ft / 5 m (AMSL)
Location 24.428597° 54.458181°
Runways 1
Magnetic Variation 2.000° E
Sunrise 2017-12-11 02:57:14 UTC / 2017-12-11 06:57:14 Local
Sunset 2017-12-11 13:36:23 UTC / 2017-12-11 17:36:23 Local
Advertisement - Login to hide

Runways

ID Width Length Bearing (true) Bearing (mag) Surface Threshold Offset Overrun Length
13 151 ft / 46 m 10,509 ft / 3,203 m 127.84° 125.84° Asphalt 1,673 ft / 510 m 600 ft / 183 m
31 151 ft / 46 m 10,509 ft / 3,203 m 307.85° 305.85° Asphalt 2,644 ft / 806 m 869 ft / 265 m

Map

Weather


0- 5 10 15 20 25 30 35+ Temperature / ° C

Clouds and Precipitation
Forecast for 2017-12-11 18:00 UTC. Updated 32 minutes ago

Ground ~20,000 ft ~40,000 ft Winds

METAR

OMAD 111300Z 29012KT 9999 SCT036 24/14 Q1018 NOSIG

TAF

TAF OMAD 111100Z 1112/1218 30012KT 8000 SCT035 PROB30 TEMPO 1200/1206 BKN020

Frequencies

Ground 121.90 MHz GND
Approach 124.40 MHz ABU DHABI APP
Tower 119.90 MHz TWR
Approach 128.10 MHz ABU DHABI APP
Warning: Do not use this data for real-world aviation or navigation. No guarantee of current accuracy is given.